Pleasant Grove, Texas
Current Conditions -  °F | °C
As of 4:15 PM on Saturday 20 Dec 2014 (Local Time) from KRFI Reporting Station
Broken Clouds Broken Clouds  
Wind Chill: 52°   Ceiling: 2200
Heat Index: 52°   Visibility: 10mi
Dew Point: 43°   Wind: 0mph
Humidity: 71%   Direction: NA
Pressure: 30.19"   Gusts: NA
Location:  32.1449°N, 94.7416°W
Report Text: KRFI 202215Z AUTO 00000KT 10SM BKN022 11/06 A3019 RMK AO2 T01130062
Loading
Personal Weather Stations






























Interactive Weather Map New forecast layout! Learn more

10-Day Weather Forecast

Advertisements
Track Severe Weather on mobile